Cotes De Bretagne — FW3973 — position and weather

sailwx.info

Track history (hours):
 
Tides and Currents Weather Stations Pressure Air Temp Water Temp Dewpoint Dewpoint Depression Visibility Wind Speed Wind Dir Waves Ship Positions

Cotes De Bretagne

Last reported at 2015-Aug-03 02:31 UTC. Time now 2015-Aug-03 13:06 UTC.
Position N 47°42' W 003°47'.

Length 75 m; draft 4.2 m.

Type: Dredging. MMSI: 227003850.

Date/timePositionNaut miles runAvg speedWind from/ knotsBaromVisibWave heightAir tempDewpointWater temp
2015-Aug-03 02:31N 47°42' W 003°47'7 6.9
2015-Aug-03 01:34N 47°38' W 003°39'7 6.8
2015-Aug-03 00:33N 47°34' W 003°31'7 6.6
2015-Aug-02 23:34N 47°30' W 003°24'6 6.5
2015-Aug-02 22:34N 47°26' W 003°16'8 8.0
2015-Aug-02 21:34N 47°22' W 003°06'7 7.0
2015-Aug-02 20:34N 47°18' W 002°58'7 7.1
2015-Aug-02 19:34N 47°12' W 002°51'7 6.8
2015-Aug-02 18:33N 47°07' W 002°45'7 6.8
2015-Aug-02 17:34N 47°02' W 002°38'28 6.7
2015-Aug-02 13:27N 46°42' W 002°11'7 7.4
2015-Aug-02 12:32N 46°36' W 002°05'7 7.4
2015-Aug-02 11:33N 46°30' W 001°60'8 7.6
2015-Aug-02 10:33N 46°24' W 001°53'6 6.0
2015-Aug-02 09:33N 46°22' W 001°45'0 0.4
2015-Aug-02 08:33N 46°22' W 001°45'0 0.5
2015-Aug-02 07:33N 46°22' W 001°45'4 4.5
2015-Aug-02 06:33N 46°25' W 001°50'9 8.8
2015-Aug-02 05:33N 46°31' W 001°59'9 8.9
2015-Aug-02 04:33N 46°39' W 002°07'9 9.0
2015-Aug-02 03:33N 46°45' W 002°16'9 9.1
2015-Aug-02 02:33N 46°52' W 002°25'9 8.6
2015-Aug-02 01:33N 46°58' W 002°33'8 8.2
2015-Aug-02 00:34N 47°04' W 002°41'8 8.3
2015-Aug-01 23:33N 47°10' W 002°49'8 8.4
2015-Aug-01 22:33N 47°16' W 002°58'8 7.9
2015-Aug-01 21:33N 47°23' W 003°05'7 6.9
2015-Aug-01 20:33N 47°28' W 003°11'8 8.2
2015-Aug-01 19:33N 47°35' W 003°18'8 8.4
2015-Aug-01 18:34N 47°43' W 003°22'2 2.5
2015-Aug-01 17:33N 47°45' W 003°19'0 0.0
2015-Aug-01 16:33N 47°45' W 003°19'0 0.0
2015-Aug-01 15:33N 47°45' W 003°19'0 0.0
2015-Aug-01 14:33N 47°45' W 003°19'6 6.2
2015-Aug-01 13:33N 47°39' W 003°22'5 5.0
2015-Aug-01 12:33N 47°35' W 003°18'6 6.0
2015-Aug-01 11:33N 47°30' W 003°13'7 7.1
2015-Aug-01 10:33N 47°24' W 003°07'8 7.5
2015-Aug-01 09:33N 47°19' W 002°60'7 7.4
2015-Aug-01 08:33N 47°14' W 002°52'7 7.1
2015-Aug-01 07:33N 47°09' W 002°44'8 7.7
2015-Aug-01 06:33N 47°06' W 002°34'8 7.8
2015-Aug-01 05:33N 47°05' W 002°22'1 1.2
2015-Aug-01 04:34N 47°05' W 002°20'0 0.0
2015-Aug-01 03:33N 47°05' W 002°20'0 0.3
2015-Aug-01 02:33N 47°05' W 002°20'3 3.4
2015-Aug-01 01:33N 47°06' W 002°25'1110.6
2015-Aug-01 00:33N 47°07' W 002°41'10 9.9
2015-Jul-31 23:30N 47°13' W 002°52'9 9.9
2015-Jul-31 22:33N 47°21' W 003°01'10 9.8
2015-Jul-31 21:33N 47°25' W 003°14'10 9.8
2015-Jul-31 20:33N 47°31' W 003°26'1010.2
2015-Jul-31 19:33N 47°38' W 003°37'1110.6
2015-Jul-31 18:33N 47°44' W 003°50'17 8.3
2015-Jul-31 16:33N 47°56' W 004°07'2 1.2
2015-Jul-31 14:33N 47°58' W 004°06'8 0.9
2015-Jul-31 06:32N 47°51' W 004°06'9 1.1
2015-Jul-30 22:19N 47°45' W 003°55'7 9.0
2015-Jul-30 21:33N 47°42' W 003°46'9 8.8
2015-Jul-30 20:33N 47°36' W 003°36'9 8.9
2015-Jul-30 19:33N 47°31' W 003°25'9 8.7
2015-Jul-30 18:33N 47°26' W 003°15'9 9.0
2015-Jul-30 17:33N 47°21' W 003°04'8 7.8
2015-Jul-30 16:32N 47°16' W 002°55'8 7.9
2015-Jul-30 15:33N 47°10' W 002°48'41 7.9
2015-Jul-30 10:25N 46°39' W 002°09'7 8.2
2015-Jul-30 09:33N 46°33' W 002°03'8 8.2
2015-Jul-30 08:33N 46°26' W 001°57'8 8.2
2015-Jul-30 07:33N 46°23' W 001°46'1 0.8
2015-Jul-30 06:33N 46°22' W 001°45'0 0.3
2015-Jul-30 05:33N 46°22' W 001°45'5 4.5
2015-Jul-30 04:33N 46°25' W 001°50'9 8.7
2015-Jul-30 03:33N 46°32' W 001°58'9 8.8
2015-Jul-30 02:33N 46°38' W 002°06'10 9.1
2015-Jul-30 01:28N 46°45' W 002°16'8 9.0
2015-Jul-30 00:33N 46°52' W 002°24'28 8.7
2015-Jul-29 21:17N 47°13' W 002°52'6 8.6
2015-Jul-29 20:33N 47°18' W 002°58'9 8.7
2015-Jul-29 19:33N 47°24' W 003°06'8 8.3
2015-Jul-29 18:33N 47°31' W 003°13'9 8.7
2015-Jul-29 17:33N 47°38' W 003°20'6 6.5
2015-Jul-29 16:33N 47°45' W 003°19'0 0.0
2015-Jul-29 15:33N 47°45' W 003°19'0 0.0
2015-Jul-29 14:33N 47°45' W 003°19'1 0.7
2015-Jul-29 13:33N 47°44' W 003°20'6 5.8
2015-Jul-29 12:33N 47°40' W 003°25'5 5.5
2015-Jul-29 11:33N 47°36' W 003°19'6 5.9
2015-Jul-29 10:33N 47°31' W 003°15'5 5.5
2015-Jul-29 09:33N 47°27' W 003°10'6 5.9
2015-Jul-29 08:33N 47°22' W 003°04'7 7.0
2015-Jul-29 07:33N 47°18' W 002°56'7 6.8
2015-Jul-29 06:33N 47°14' W 002°48'7 6.7
2015-Jul-29 05:32N 47°10' W 002°39'6 6.4
2015-Jul-29 04:33N 47°06' W 002°32'7 6.7
2015-Jul-29 03:33N 47°06' W 002°22'1 1.4
2015-Jul-29 02:33N 47°05' W 002°20'0 0.3
2015-Jul-29 01:33N 47°05' W 002°20'0 0.2
2015-Jul-29 00:33N 47°05' W 002°20'0 0.3
2015-Jul-28 23:32N 47°05' W 002°20'8 8.6
2015-Jul-28 22:33N 47°09' W 002°31'1010.1
2015-Jul-28 21:33N 47°14' W 002°44'10 9.8
2015-Jul-28 20:33N 47°19' W 002°57'10 9.6
2015-Jul-28 19:33N 47°23' W 003°09'10 9.6
2015-Jul-28 18:33N 47°29' W 003°21'1010.1
2015-Jul-28 17:33N 47°35' W 003°33'1010.3
2015-Jul-28 16:33N 47°41' W 003°45'1110.7
2015-Jul-28 15:33N 47°47' W 003°58'33 1.6
2015-Jul-27 19:33N 47°60' W 004°43'8 7.6
2015-Jul-27 18:34N 48°07' W 004°46'9 9.2
2015-Jul-27 17:34N 48°16' W 004°46'1010.3
2015-Jul-27 16:34N 48°26' W 004°50'8 8.0
2015-Jul-27 15:34N 48°34' W 004°50'11 0.2
2015-Jul-25 20:06N 48°24' W 004°48'611.3
2015-Jul-25 19:33N 48°18' W 004°46'1010.3
2015-Jul-25 18:34N 48°07' W 004°46'46 9.0
2015-Jul-25 13:28N 47°43' W 003°47'9 9.5
2015-Jul-25 12:33N 47°41' W 003°35'8 8.5
2015-Jul-25 11:34N 47°42' W 003°23'4 3.7
2015-Jul-25 10:33N 47°45' W 003°19'0 0.0
2015-Jul-25 09:33N 47°45' W 003°19'0 0.0
2015-Jul-25 08:33N 47°45' W 003°19'2 2.2
2015-Jul-25 07:34N 47°43' W 003°22'4 4.2
2015-Jul-25 06:33N 47°40' W 003°24'0 0.0
2015-Jul-25 05:33N 47°40' W 003°24'0 0.0
2015-Jul-25 04:33N 47°40' W 003°24'0 0.0
2015-Jul-25 03:33N 47°40' W 003°24'0 0.0
2015-Jul-25 02:33N 47°40' W 003°24'0 0.0
2015-Jul-25 01:33N 47°40' W 003°24'0 0.0
2015-Jul-25 00:33N 47°40' W 003°24'0 0.0
2015-Jul-24 23:33N 47°40' W 003°24'0 0.1
2015-Jul-24 22:33N 47°40' W 003°24'6 6.3
2015-Jul-24 21:33N 47°35' W 003°18'6 5.6
2015-Jul-24 20:33N 47°30' W 003°14'5 4.9
2015-Jul-24 19:34N 47°26' W 003°09'6 5.8
2015-Jul-24 18:34N 47°22' W 003°04'7 6.5
2015-Jul-24 17:33N 47°17' W 002°58'5 5.1
2015-Jul-24 16:32N 47°13' W 002°52'44 6.2
2015-Jul-24 09:31N 46°41' W 002°09'7 7.2
2015-Jul-24 08:33N 46°36' W 002°03'7 6.9
2015-Jul-24 07:33N 46°30' W 001°56'7 6.9
2015-Jul-24 06:33N 46°25' W 001°49'4 4.0
2015-Jul-24 05:34N 46°22' W 001°45'0 0.0
2015-Jul-24 04:33N 46°22' W 001°45'0 0.1
2015-Jul-24 03:33N 46°22' W 001°46'9 8.7
2015-Jul-24 02:33N 46°29' W 001°54'  
Track history (hours):
 
Tides and Currents Weather Stations Pressure Air Temp Water Temp Dewpoint Dewpoint Depression Visibility Wind Speed Wind Dir Waves Ship Positions

Cotes De Bretagne

Last reported at 2015-Aug-03 02:31 UTC. Time now 2015-Aug-03 13:06 UTC.
Position N 47°42' W 003°47'.

Length 75 m; draft 4.2 m.

Type: Dredging. MMSI: 227003850.

Date/timePositionNaut miles runAvg speedWind from/ knotsBaromVisibWave heightAir tempDewpointWater temp
2015-Aug-03 02:31N 47°42' W 003°47'7 6.9
2015-Aug-03 01:34N 47°38' W 003°39'7 6.8
2015-Aug-03 00:33N 47°34' W 003°31'7 6.6
2015-Aug-02 23:34N 47°30' W 003°24'6 6.5
2015-Aug-02 22:34N 47°26' W 003°16'8 8.0
2015-Aug-02 21:34N 47°22' W 003°06'7 7.0
2015-Aug-02 20:34N 47°18' W 002°58'7 7.1
2015-Aug-02 19:34N 47°12' W 002°51'7 6.8
2015-Aug-02 18:33N 47°07' W 002°45'7 6.8
2015-Aug-02 17:34N 47°02' W 002°38'28 6.7
2015-Aug-02 13:27N 46°42' W 002°11'7 7.4
2015-Aug-02 12:32N 46°36' W 002°05'7 7.4
2015-Aug-02 11:33N 46°30' W 001°60'8 7.6
2015-Aug-02 10:33N 46°24' W 001°53'6 6.0
2015-Aug-02 09:33N 46°22' W 001°45'0 0.4
2015-Aug-02 08:33N 46°22' W 001°45'0 0.5
2015-Aug-02 07:33N 46°22' W 001°45'4 4.5
2015-Aug-02 06:33N 46°25' W 001°50'9 8.8
2015-Aug-02 05:33N 46°31' W 001°59'9 8.9
2015-Aug-02 04:33N 46°39' W 002°07'9 9.0
2015-Aug-02 03:33N 46°45' W 002°16'9 9.1
2015-Aug-02 02:33N 46°52' W 002°25'9 8.6
2015-Aug-02 01:33N 46°58' W 002°33'8 8.2
2015-Aug-02 00:34N 47°04' W 002°41'8 8.3
2015-Aug-01 23:33N 47°10' W 002°49'8 8.4
2015-Aug-01 22:33N 47°16' W 002°58'8 7.9
2015-Aug-01 21:33N 47°23' W 003°05'7 6.9
2015-Aug-01 20:33N 47°28' W 003°11'8 8.2
2015-Aug-01 19:33N 47°35' W 003°18'8 8.4
2015-Aug-01 18:34N 47°43' W 003°22'2 2.5
2015-Aug-01 17:33N 47°45' W 003°19'0 0.0
2015-Aug-01 16:33N 47°45' W 003°19'0 0.0
2015-Aug-01 15:33N 47°45' W 003°19'0 0.0
2015-Aug-01 14:33N 47°45' W 003°19'6 6.2
2015-Aug-01 13:33N 47°39' W 003°22'5 5.0
2015-Aug-01 12:33N 47°35' W 003°18'6 6.0
2015-Aug-01 11:33N 47°30' W 003°13'7 7.1
2015-Aug-01 10:33N 47°24' W 003°07'8 7.5
2015-Aug-01 09:33N 47°19' W 002°60'7 7.4
2015-Aug-01 08:33N 47°14' W 002°52'7 7.1
2015-Aug-01 07:33N 47°09' W 002°44'8 7.7
2015-Aug-01 06:33N 47°06' W 002°34'8 7.8
2015-Aug-01 05:33N 47°05' W 002°22'1 1.2
2015-Aug-01 04:34N 47°05' W 002°20'0 0.0
2015-Aug-01 03:33N 47°05' W 002°20'0 0.3
2015-Aug-01 02:33N 47°05' W 002°20'3 3.4
2015-Aug-01 01:33N 47°06' W 002°25'1110.6
2015-Aug-01 00:33N 47°07' W 002°41'10 9.9
2015-Jul-31 23:30N 47°13' W 002°52'9 9.9
2015-Jul-31 22:33N 47°21' W 003°01'10 9.8
2015-Jul-31 21:33N 47°25' W 003°14'10 9.8
2015-Jul-31 20:33N 47°31' W 003°26'1010.2
2015-Jul-31 19:33N 47°38' W 003°37'1110.6
2015-Jul-31 18:33N 47°44' W 003°50'17 8.3
2015-Jul-31 16:33N 47°56' W 004°07'2 1.2
2015-Jul-31 14:33N 47°58' W 004°06'8 0.9
2015-Jul-31 06:32N 47°51' W 004°06'9 1.1
2015-Jul-30 22:19N 47°45' W 003°55'7 9.0
2015-Jul-30 21:33N 47°42' W 003°46'9 8.8
2015-Jul-30 20:33N 47°36' W 003°36'9 8.9
2015-Jul-30 19:33N 47°31' W 003°25'9 8.7
2015-Jul-30 18:33N 47°26' W 003°15'9 9.0
2015-Jul-30 17:33N 47°21' W 003°04'8 7.8
2015-Jul-30 16:32N 47°16' W 002°55'8 7.9
2015-Jul-30 15:33N 47°10' W 002°48'41 7.9
2015-Jul-30 10:25N 46°39' W 002°09'7 8.2
2015-Jul-30 09:33N 46°33' W 002°03'8 8.2
2015-Jul-30 08:33N 46°26' W 001°57'8 8.2
2015-Jul-30 07:33N 46°23' W 001°46'1 0.8
2015-Jul-30 06:33N 46°22' W 001°45'0 0.3
2015-Jul-30 05:33N 46°22' W 001°45'5 4.5
2015-Jul-30 04:33N 46°25' W 001°50'9 8.7
2015-Jul-30 03:33N 46°32' W 001°58'9 8.8
2015-Jul-30 02:33N 46°38' W 002°06'10 9.1
2015-Jul-30 01:28N 46°45' W 002°16'8 9.0
2015-Jul-30 00:33N 46°52' W 002°24'28 8.7
2015-Jul-29 21:17N 47°13' W 002°52'6 8.6
2015-Jul-29 20:33N 47°18' W 002°58'9 8.7
2015-Jul-29 19:33N 47°24' W 003°06'8 8.3
2015-Jul-29 18:33N 47°31' W 003°13'9 8.7
2015-Jul-29 17:33N 47°38' W 003°20'6 6.5
2015-Jul-29 16:33N 47°45' W 003°19'0 0.0
2015-Jul-29 15:33N 47°45' W 003°19'0 0.0
2015-Jul-29 14:33N 47°45' W 003°19'1 0.7
2015-Jul-29 13:33N 47°44' W 003°20'6 5.8
2015-Jul-29 12:33N 47°40' W 003°25'5 5.5
2015-Jul-29 11:33N 47°36' W 003°19'6 5.9
2015-Jul-29 10:33N 47°31' W 003°15'5 5.5
2015-Jul-29 09:33N 47°27' W 003°10'6 5.9
2015-Jul-29 08:33N 47°22' W 003°04'7 7.0
2015-Jul-29 07:33N 47°18' W 002°56'7 6.8
2015-Jul-29 06:33N 47°14' W 002°48'7 6.7
2015-Jul-29 05:32N 47°10' W 002°39'6 6.4
2015-Jul-29 04:33N 47°06' W 002°32'7 6.7
2015-Jul-29 03:33N 47°06' W 002°22'1 1.4
2015-Jul-29 02:33N 47°05' W 002°20'0 0.3
2015-Jul-29 01:33N 47°05' W 002°20'0 0.2
2015-Jul-29 00:33N 47°05' W 002°20'0 0.3
2015-Jul-28 23:32N 47°05' W 002°20'8 8.6
2015-Jul-28 22:33N 47°09' W 002°31'1010.1
2015-Jul-28 21:33N 47°14' W 002°44'10 9.8
2015-Jul-28 20:33N 47°19' W 002°57'10 9.6
2015-Jul-28 19:33N 47°23' W 003°09'10 9.6
2015-Jul-28 18:33N 47°29' W 003°21'1010.1
2015-Jul-28 17:33N 47°35' W 003°33'1010.3
2015-Jul-28 16:33N 47°41' W 003°45'1110.7
2015-Jul-28 15:33N 47°47' W 003°58'33 1.6
2015-Jul-27 19:33N 47°60' W 004°43'8 7.6
2015-Jul-27 18:34N 48°07' W 004°46'9 9.2
2015-Jul-27 17:34N 48°16' W 004°46'1010.3
2015-Jul-27 16:34N 48°26' W 004°50'8 8.0
2015-Jul-27 15:34N 48°34' W 004°50'11 0.2
2015-Jul-25 20:06N 48°24' W 004°48'611.3
2015-Jul-25 19:33N 48°18' W 004°46'1010.3
2015-Jul-25 18:34N 48°07' W 004°46'46 9.0
2015-Jul-25 13:28N 47°43' W 003°47'9 9.5
2015-Jul-25 12:33N 47°41' W 003°35'8 8.5
2015-Jul-25 11:34N 47°42' W 003°23'4 3.7
2015-Jul-25 10:33N 47°45' W 003°19'0 0.0
2015-Jul-25 09:33N 47°45' W 003°19'0 0.0
2015-Jul-25 08:33N 47°45' W 003°19'2 2.2
2015-Jul-25 07:34N 47°43' W 003°22'4 4.2
2015-Jul-25 06:33N 47°40' W 003°24'0 0.0
2015-Jul-25 05:33N 47°40' W 003°24'0 0.0
2015-Jul-25 04:33N 47°40' W 003°24'0 0.0
2015-Jul-25 03:33N 47°40' W 003°24'0 0.0
2015-Jul-25 02:33N 47°40' W 003°24'0 0.0
2015-Jul-25 01:33N 47°40' W 003°24'0 0.0
2015-Jul-25 00:33N 47°40' W 003°24'0 0.0
2015-Jul-24 23:33N 47°40' W 003°24'0 0.1
2015-Jul-24 22:33N 47°40' W 003°24'6 6.3
2015-Jul-24 21:33N 47°35' W 003°18'6 5.6
2015-Jul-24 20:33N 47°30' W 003°14'5 4.9
2015-Jul-24 19:34N 47°26' W 003°09'6 5.8
2015-Jul-24 18:34N 47°22' W 003°04'7 6.5
2015-Jul-24 17:33N 47°17' W 002°58'5 5.1
2015-Jul-24 16:32N 47°13' W 002°52'44 6.2
2015-Jul-24 09:31N 46°41' W 002°09'7 7.2
2015-Jul-24 08:33N 46°36' W 002°03'7 6.9
2015-Jul-24 07:33N 46°30' W 001°56'7 6.9
2015-Jul-24 06:33N 46°25' W 001°49'4 4.0
2015-Jul-24 05:34N 46°22' W 001°45'0 0.0
2015-Jul-24 04:33N 46°22' W 001°45'0 0.1
2015-Jul-24 03:33N 46°22' W 001°46'9 8.7
2015-Jul-24 02:33N 46°29' W 001°54'  

Dump ship's entire track history